Time;durP1;ratioP1;P1;durP2;ratioP2;P2;SDS_P1;SDS_P2;PMS_P1;PMS_P2;Temp;Humidity;BMP_temperature;BMP_pressure;BME280_temperature;BME280_humidity;BME280_pressure;Samples;Min_cycle;Max_cycle;Signal;HPM_P1;HPM_P2
2021/06/05 00:02:22;;;;;;;14.27;12.90;;;19.70;12.60;;;;;;5872309;23;20733;-68
2021/06/05 00:04:48;;;;;;;14.23;12.90;;;19.40;1.00;;;;;;5870743;23;20986;-67
2021/06/05 00:07:14;;;;;;;13.03;11.77;;;19.50;16.10;;;;;;5864640;23;21205;-65
2021/06/05 00:09:40;;;;;;;14.57;13.23;;;19.60;6.80;;;;;;5862056;23;20952;-64
2021/06/05 00:12:07;;;;;;;14.60;13.20;;;19.60;1.00;;;;;;5863443;23;20236;-64
2021/06/05 00:14:33;;;;;;;14.20;12.90;;;19.60;1.00;;;;;;5855459;23;20530;-64
2021/06/05 00:16:59;;;;;;;14.23;13.03;;;19.70;1.00;;;;;;5900406;23;20616;-65
2021/06/05 00:19:24;;;;;;;15.20;13.77;;;19.70;1.00;;;;;;5878756;23;20471;-65
2021/06/05 00:21:50;;;;;;;13.90;12.70;;;19.70;1.00;;;;;;5890320;23;20673;-65
2021/06/05 00:24:17;;;;;;;14.00;12.80;;;19.70;1.00;;;;;;5872796;23;20545;-64
2021/06/05 00:26:43;;;;;;;13.87;12.67;;;19.60;1.00;;;;;;5845906;23;20430;-64
2021/06/05 00:29:09;;;;;;;14.53;13.30;;;19.60;1.00;;;;;;5857412;23;20828;-66
2021/06/05 00:31:35;;;;;;;14.63;13.43;;;19.70;1.00;;;;;;5906697;23;20792;-65
2021/06/05 00:34:01;;;;;;;14.23;12.97;;;19.70;1.00;;;;;;5857338;23;20543;-65
2021/06/05 00:36:28;;;;;;;14.53;13.10;;;19.50;1.00;;;;;;5845015;23;20227;-65
2021/06/05 00:38:54;;;;;;;14.47;13.10;;;19.50;1.00;;;;;;5848992;23;20854;-65
2021/06/05 00:41:22;;;;;;;13.90;12.70;;;19.60;1.00;;;;;;5904723;23;20391;-64
2021/06/05 00:43:51;;;;;;;13.70;12.53;;;19.70;1.00;;;;;;5869797;23;20423;-66
2021/06/05 00:46:20;;;;;;;14.87;13.57;;;19.50;1.00;;;;;;5856536;23;20801;-65
2021/06/05 00:48:47;;;;;;;14.60;13.30;;;19.40;1.00;;;;;;5849429;23;20916;-65
2021/06/05 00:51:13;;;;;;;16.57;15.03;;;19.40;15.00;;;;;;5812196;23;20854;-65
2021/06/05 00:53:40;;;;;;;16.03;14.63;;;19.30;27.70;;;;;;5888035;23;20399;-65
2021/06/05 00:56:09;;;;;;;14.97;13.70;;;19.20;31.10;;;;;;5852445;23;20403;-65
2021/06/05 00:58:35;;;;;;;15.90;14.40;;;19.20;32.70;;;;;;5846298;23;20392;-65
2021/06/05 01:01:14;;;;;;;16.40;14.90;;;19.20;45.70;;;;;;5850327;23;20465;-65
2021/06/05 01:03:40;;;;;;;13.53;12.43;;;19.10;94.10;;;;;;5833759;23;20164;-65
2021/06/05 01:06:23;;;;;;;16.57;14.13;;;19.10;99.90;;;;;;5835343;23;20403;-65
2021/06/05 01:09:01;;;;;;;14.83;13.53;;;19.10;63.20;;;;;;5862917;23;21218;-65
2021/06/05 01:11:29;;;;;;;14.30;13.03;;;19.00;63.80;;;;;;5839786;23;20878;-65
2021/06/05 01:14:03;;;;;;;14.47;13.10;;;19.00;81.00;;;;;;5878938;23;21206;-65
2021/06/05 01:16:29;;;;;;;12.93;11.80;;;19.10;75.80;;;;;;5831667;23;20875;-65
2021/06/05 01:19:16;;;;;;;15.07;13.77;;;19.10;94.90;;;;;;5854185;23;20783;-65
2021/06/05 01:22:06;;;;;;;16.40;14.90;;;19.30;68.80;;;;;;5870233;23;20364;-66
2021/06/05 01:24:52;;;;;;;14.67;13.37;;;19.40;14.30;;;;;;5849481;23;20733;-66
2021/06/05 01:27:28;;;;;;;16.17;14.67;;;19.20;4.20;;;;;;5887164;23;21238;-65
2021/06/05 01:29:57;;;;;;;14.80;13.43;;;19.30;31.00;;;;;;5848170;23;20813;-66
2021/06/05 01:32:26;;;;;;;16.37;14.70;;;19.30;26.60;;;;;;5851485;23;20542;-65
2021/06/05 01:34:56;;;;;;;15.10;13.60;;;19.30;24.00;;;;;;5934712;23;21199;-65
2021/06/05 01:37:23;;;;;;;15.33;13.87;;;19.40;29.70;;;;;;5916053;23;20924;-65
2021/06/05 01:39:51;;;;;;;15.33;14.10;;;19.30;11.10;;;;;;5838212;23;20392;-66
2021/06/05 01:42:24;;;;;;;17.00;15.40;;;19.40;5.50;;;;;;5850424;23;20399;-66
2021/06/05 01:44:53;;;;;;;16.70;15.10;;;19.20;25.10;;;;;;5836955;23;21231;-66
2021/06/05 01:47:20;;;;;;;16.63;15.13;;;19.00;44.30;;;;;;5857403;23;20394;-66
2021/06/05 01:49:47;;;;;;;17.97;16.07;;;19.00;78.30;;;;;;5822465;23;20907;-65
2021/06/05 01:52:27;;;;;;;16.63;15.10;;;19.00;98.10;;;;;;5824079;23;20392;-65
2021/06/05 01:54:59;;;;;;;16.27;14.73;;;18.90;99.90;;;;;;5863375;23;20375;-66
2021/06/05 01:57:30;;;;;;;15.40;14.03;;;18.80;99.90;;;;;;5814841;23;20380;-66
2021/06/05 01:59:56;;;;;;;15.40;13.80;;;18.70;99.90;;;;;;5857982;23;20827;-65
2021/06/05 02:02:23;;;;;;;17.13;15.47;;;18.80;99.90;;;;;;5872818;23;20862;-65
2021/06/05 02:04:50;;;;;;;14.50;13.20;;;18.60;99.90;;;;;;5881792;23;20682;-65
2021/06/05 02:07:17;;;;;;;15.30;13.90;;;18.60;99.90;;;;;;5897083;23;20466;-65
2021/06/05 02:09:43;;;;;;;16.20;14.70;;;18.60;99.90;;;;;;5895159;23;20909;-65
2021/06/05 02:12:35;;;;;;;14.93;13.57;;;18.50;99.90;;;;;;5855743;23;20859;-65
2021/06/05 02:15:14;;;;;;;14.50;13.20;;;18.40;99.90;;;;;;5859839;23;20814;-65
2021/06/05 02:17:41;;;;;;;14.47;13.07;;;18.40;99.90;;;;;;5854806;23;20457;-65
2021/06/05 02:20:16;;;;;;;16.00;14.50;;;18.40;99.90;;;;;;5893069;23;21197;-65
2021/06/05 02:22:43;;;;;;;15.73;14.33;;;18.40;99.90;;;;;;5895283;23;20752;-65
2021/06/05 02:25:12;;;;;;;16.47;14.87;;;18.40;99.90;;;;;;5904554;23;21154;-65
2021/06/05 02:27:39;;;;;;;15.93;14.63;;;18.40;99.90;;;;;;5900212;23;20778;-65
2021/06/05 02:30:08;;;;;;;17.47;15.70;;;18.20;99.90;;;;;;5858039;23;20431;-65
2021/06/05 02:32:34;;;;;;;15.70;14.30;;;18.30;99.90;;;;;;5857268;23;20750;-66
2021/06/05 02:35:00;;;;;;;14.83;13.63;;;18.40;99.90;;;;;;5878363;23;20758;-65
2021/06/05 02:37:29;;;;;;;16.37;14.97;;;18.30;97.50;;;;;;5866811;23;20840;-65
2021/06/05 02:40:01;;;;;;;14.30;13.10;;;18.30;65.10;;;;;;5818986;23;20471;-65
2021/06/05 02:42:27;;;;;;;15.70;14.40;;;18.30;31.60;;;;;;5863314;23;20763;-66
2021/06/05 02:44:57;;;;;;;15.47;14.17;;;18.30;26.00;;;;;;5835312;23;20466;-65
2021/06/05 02:47:25;;;;;;;15.87;14.50;;;18.30;26.90;;;;;;5875341;23;20383;-65
2021/06/05 02:49:52;;;;;;;14.20;12.90;;;18.30;9.80;;;;;;5785628;23;20454;-65
2021/06/05 02:52:34;;;;;;;14.03;12.80;;;18.30;6.90;;;;;;5860042;23;20771;-66
2021/06/05 02:55:13;;;;;;;14.13;12.83;;;18.30;4.30;;;;;;5838554;23;20487;-65
2021/06/05 02:57:39;;;;;;;15.27;13.87;;;18.30;1.00;;;;;;5826813;23;20884;-66
2021/06/05 03:00:12;;;;;;;15.27;13.87;;;18.20;13.60;;;;;;5835152;23;20974;-66
2021/06/05 03:02:38;;;;;;;14.73;13.53;;;18.40;13.10;;;;;;5845326;23;20392;-66
2021/06/05 03:05:06;;;;;;;14.00;12.60;;;18.40;1.00;;;;;;5887386;23;20400;-65
2021/06/05 03:07:32;;;;;;;14.10;12.80;;;18.50;1.00;;;;;;5843818;23;20164;-66
2021/06/05 03:09:58;;;;;;;14.57;13.30;;;18.50;1.00;;;;;;5879532;23;20423;-65
2021/06/05 03:12:24;;;;;;;14.63;13.33;;;18.50;1.00;;;;;;5886040;23;20386;-65
2021/06/05 03:14:50;;;;;;;14.40;13.10;;;18.50;1.00;;;;;;5807183;23;20152;-66
2021/06/05 03:17:16;;;;;;;13.93;12.47;;;18.50;1.00;;;;;;5848677;23;20395;-65
2021/06/05 03:19:41;;;;;;;14.30;13.17;;;18.50;1.00;;;;;;5841439;23;21124;-66
2021/06/05 03:22:07;;;;;;;14.83;13.50;;;18.50;1.00;;;;;;5862596;23;20706;-65
2021/06/05 03:24:33;;;;;;;14.37;13.17;;;18.50;1.00;;;;;;5835903;23;20547;-66
2021/06/05 03:27:00;;;;;;;13.80;12.50;;;18.40;1.00;;;;;;5845399;23;20564;-66
2021/06/05 03:29:27;;;;;;;16.63;14.17;;;18.40;1.00;;;;;;5839217;23;20610;-66
2021/06/05 03:31:53;;;;;;;13.83;12.63;;;18.50;1.00;;;;;;5844986;23;20431;-65
2021/06/05 03:34:18;;;;;;;15.00;13.70;;;18.30;1.00;;;;;;5825402;23;21299;-65
2021/06/05 03:36:44;;;;;;;14.57;13.10;;;18.20;1.00;;;;;;5826730;23;21134;-65
2021/06/05 03:39:09;;;;;;;14.40;13.07;;;18.10;14.20;;;;;;5872640;23;20163;-65
2021/06/05 03:41:37;;;;;;;14.53;13.23;;;18.10;19.30;;;;;;5877337;23;20164;-65
2021/06/05 03:44:03;;;;;;;15.27;13.97;;;18.00;50.90;;;;;;5845380;23;20524;-65
2021/06/05 03:46:29;;;;;;;13.33;12.23;;;18.20;66.00;;;;;;5876982;23;20680;-65
2021/06/05 03:48:55;;;;;;;15.10;12.73;;;18.20;1.00;;;;;;5834786;23;20830;-65
2021/06/05 03:51:20;;;;;;;14.43;13.10;;;18.30;29.50;;;;;;5845162;23;20630;-65
2021/06/05 03:53:46;;;;;;;14.57;12.80;;;18.50;11.50;;;;;;5892727;23;20712;-65
2021/06/05 03:56:12;;;;;;;15.07;13.77;;;18.60;1.00;;;;;;5879246;23;20430;-65
2021/06/05 03:58:41;;;;;;;13.13;12.03;;;18.70;1.00;;;;;;5846124;23;20175;-64
2021/06/05 04:01:12;;;;;;;14.00;12.80;;;18.90;1.00;;;;;;5831944;23;20184;-64
2021/06/05 04:03:38;;;;;;;12.80;11.80;;;19.30;1.00;;;;;;5869185;23;20839;-65
2021/06/05 04:06:05;;;;;;;11.93;10.90;;;19.80;1.00;;;;;;5833208;23;20400;-64
2021/06/05 04:08:30;;;;;;;11.70;10.53;;;20.10;1.00;;;;;;5885573;23;20164;-65
2021/06/05 04:10:56;;;;;;;11.63;10.33;;;20.70;99.90;;;;;;5846185;23;20420;-64
2021/06/05 04:13:22;;;;;;;11.60;10.47;;;21.30;1.00;;;;;;5857516;23;20828;-65
2021/06/05 04:15:47;;;;;;;10.77;9.83;;;21.30;95.30;;;;;;5881941;23;20658;-65
2021/06/05 04:18:19;;;;;;;11.80;10.60;;;21.50;1.00;;;;;;5833818;23;20153;-65
2021/06/05 04:20:45;;;;;;;11.20;10.30;;;21.90;99.90;;;;;;5873232;23;20384;-66
2021/06/05 04:23:14;;;;;;;11.93;10.73;;;22.20;1.00;;;;;;5893085;23;20454;-65
2021/06/05 04:25:41;;;;;;;11.97;10.87;;;22.60;1.00;;;;;;5849509;23;20442;-66
2021/06/05 04:28:09;;;;;;;13.13;11.53;;;23.40;1.00;;;;;;5846690;23;20866;-65
2021/06/05 04:30:39;;;;;;;10.77;9.87;;;23.40;1.00;;;;;;5885346;23;21036;-65
2021/06/05 04:33:06;;;;;;;10.97;10.17;;;23.50;1.00;;;;;;5889357;23;20842;-65
2021/06/05 04:35:32;;;;;;;10.00;9.00;;;23.50;1.00;;;;;;5855789;23;20450;-66
2021/06/05 04:37:58;;;;;;;11.13;10.20;;;23.70;99.90;;;;;;5848574;23;20388;-66
2021/06/05 04:40:25;;;;;;;9.70;8.90;;;23.80;99.90;;;;;;5853636;23;20680;-66
2021/06/05 04:42:51;;;;;;;9.90;9.07;;;24.10;99.90;;;;;;5886283;23;20765;-66
2021/06/05 04:45:18;;;;;;;10.50;9.60;;;24.00;99.90;;;;;;5833758;23;20919;-65
2021/06/05 04:47:44;;;;;;;10.30;9.40;;;23.80;99.90;;;;;;5845114;23;20850;-66
2021/06/05 04:50:11;;;;;;;10.17;9.27;;;24.90;94.60;;;;;;5836700;23;20442;-66
2021/06/05 04:52:37;;;;;;;9.43;8.53;;;25.00;1.00;;;;;;5868552;23;20145;-66
2021/06/05 04:55:05;;;;;;;9.97;9.10;;;25.50;1.00;;;;;;5856295;23;20453;-66
2021/06/05 04:57:32;;;;;;;10.00;9.10;;;26.20;1.00;;;;;;5850962;23;20774;-66
2021/06/05 04:59:58;;;;;;;9.67;8.87;;;26.20;1.00;;;;;;5845651;23;21128;-65
2021/06/05 05:02:23;;;;;;;10.77;9.80;;;26.50;1.00;;;;;;5870224;23;20779;-66
2021/06/05 05:04:49;;;;;;;10.77;9.80;;;27.00;1.00;;;;;;5863517;23;20153;-66
2021/06/05 05:07:17;;;;;;;9.40;8.63;;;26.80;1.00;;;;;;5839482;23;20157;-66
2021/06/05 05:09:42;;;;;;;10.03;9.33;;;26.50;1.00;;;;;;5866434;23;21285;-66
2021/06/05 05:12:09;;;;;;;9.67;8.73;;;26.50;1.00;;;;;;5878882;23;20871;-66
2021/06/05 05:14:37;;;;;;;9.60;8.80;;;26.30;1.00;;;;;;5836964;23;20517;-66
2021/06/05 05:17:03;;;;;;;10.17;9.37;;;26.60;1.00;;;;;;5875669;23;20928;-66
2021/06/05 05:19:29;;;;;;;10.27;9.30;;;26.70;1.00;;;;;;5857306;23;20395;-66
2021/06/05 05:21:56;;;;;;;9.70;9.00;;;27.20;1.00;;;;;;5853954;23;21251;-66
2021/06/05 05:24:23;;;;;;;10.60;9.80;;;26.00;1.00;;;;;;5893025;23;20813;-65
2021/06/05 05:26:49;;;;;;;8.93;8.27;;;26.00;1.00;;;;;;5892382;23;20641;-66
2021/06/05 05:29:14;;;;;;;11.00;10.10;;;26.10;1.00;;;;;;5899697;23;20391;-66
2021/06/05 05:31:40;;;;;;;10.27;9.07;;;26.20;1.00;;;;;;5859685;23;20438;-66
2021/06/05 05:34:06;;;;;;;11.20;10.30;;;27.70;1.00;;;;;;5889726;23;20157;-66
2021/06/05 05:36:35;;;;;;;9.53;8.73;;;27.00;1.00;;;;;;5849731;23;20687;-66
2021/06/05 05:39:03;;;;;;;10.13;9.33;;;26.90;1.00;;;;;;5893890;23;20252;-66
2021/06/05 05:41:29;;;;;;;9.90;8.87;;;27.40;1.00;;;;;;5863725;23;20399;-66
2021/06/05 05:43:55;;;;;;;9.77;9.07;;;27.80;1.00;;;;;;5875292;23;20499;-66
2021/06/05 05:46:21;;;;;;;10.63;9.63;;;27.10;1.00;;;;;;5863966;23;20156;-66
2021/06/05 05:48:48;;;;;;;10.40;9.40;;;27.70;1.00;;;;;;5870129;23;20400;-66
2021/06/05 05:51:18;;;;;;;10.90;9.90;;;27.60;1.00;;;;;;5872912;23;20507;-66
2021/06/05 05:53:43;;;;;;;9.83;9.03;;;26.60;1.00;;;;;;5867323;23;20377;-66
2021/06/05 05:56:12;;;;;;;9.87;9.07;;;27.40;1.00;;;;;;5862143;23;20396;-67
2021/06/05 05:58:40;;;;;;;13.00;10.37;;;27.90;1.00;;;;;;5904521;23;20175;-66
2021/06/05 06:01:09;;;;;;;10.00;9.00;;;28.30;1.00;;;;;;5904219;23;20921;-66
2021/06/05 06:03:35;;;;;;;10.20;9.20;;;27.80;1.00;;;;;;5871471;23;20770;-66
2021/06/05 06:06:00;;;;;;;10.13;9.23;;;28.20;1.00;;;;;;5905696;23;20826;-66
2021/06/05 06:08:26;;;;;;;11.10;10.03;;;28.60;1.00;;;;;;5873629;23;21086;-66
2021/06/05 06:10:53;;;;;;;9.90;9.10;;;29.00;1.00;;;;;;5867929;23;20230;-66
2021/06/05 06:13:19;;;;;;;9.87;8.97;;;30.60;1.00;;;;;;5862531;23;20446;-66
2021/06/05 06:15:45;;;;;;;9.10;8.30;;;30.30;1.00;;;;;;5882453;23;20808;-66
2021/06/05 06:18:12;;;;;;;10.73;9.80;;;30.20;1.00;;;;;;5879218;23;20721;-66
2021/06/05 06:20:44;;;;;;;10.13;9.23;;;29.50;1.00;;;;;;5842248;23;20312;-66
2021/06/05 06:23:20;;;;;;;10.93;9.93;;;27.70;1.00;;;;;;5870190;23;20399;-66
2021/06/05 06:25:49;;;;;;;10.33;9.43;;;27.50;1.00;;;;;;5848274;23;20927;-66
2021/06/05 06:28:17;;;;;;;10.97;9.87;;;27.20;1.00;;;;;;5877766;23;20387;-65
2021/06/05 06:30:44;;;;;;;10.13;9.30;;;28.60;1.00;;;;;;5845370;23;20985;-65
2021/06/05 06:33:12;;;;;;;10.20;9.37;;;29.00;1.00;;;;;;5871969;23;20818;-65
2021/06/05 06:35:38;;;;;;;10.37;9.57;;;29.30;1.00;;;;;;5835987;23;20791;-65
2021/06/05 06:38:09;;;;;;;10.10;9.30;;;28.50;1.00;;;;;;5873486;23;20838;-65
2021/06/05 06:40:35;;;;;;;10.50;9.57;;;28.10;1.00;;;;;;5853906;23;20391;-65
2021/06/05 06:43:04;;;;;;;10.00;9.20;;;28.20;1.00;;;;;;5868438;23;20487;-67
2021/06/05 06:45:29;;;;;;;10.10;9.30;;;28.50;1.00;;;;;;5823336;23;20431;-68
2021/06/05 06:47:56;;;;;;;9.07;8.27;;;28.30;1.00;;;;;;5836028;23;20407;-66
2021/06/05 06:50:25;;;;;;;9.47;8.67;;;28.90;1.00;;;;;;5816994;23;20618;-66
2021/06/05 06:52:51;;;;;;;10.33;9.43;;;28.60;1.00;;;;;;5839250;23;20823;-66
2021/06/05 06:55:17;;;;;;;10.27;8.90;;;27.40;1.00;;;;;;5824495;23;20831;-66
2021/06/05 06:57:43;;;;;;;9.07;8.23;;;27.20;1.00;;;;;;5831170;23;20965;-66
2021/06/05 07:00:17;;;;;;;9.67;8.87;;;27.10;1.00;;;;;;5830913;23;20392;-66
2021/06/05 07:02:43;;;;;;;10.27;9.37;;;28.10;1.00;;;;;;5862596;23;20145;-66
2021/06/05 07:05:09;;;;;;;9.93;9.07;;;27.00;1.00;;;;;;5857748;23;20825;-66
2021/06/05 07:07:35;;;;;;;9.70;8.90;;;28.10;1.00;;;;;;5803481;23;20881;-67
2021/06/05 07:10:01;;;;;;;9.50;8.63;;;29.00;1.00;;;;;;5818213;23;20899;-65
2021/06/05 07:12:26;;;;;;;8.83;8.10;;;29.00;1.00;;;;;;5821225;23;20156;-65
2021/06/05 07:14:52;;;;;;;9.83;9.03;;;27.60;1.00;;;;;;5818803;23;20157;-65
2021/06/05 07:17:18;;;;;;;8.93;8.03;;;27.90;1.00;;;;;;5790563;23;20153;-66
2021/06/05 07:19:45;;;;;;;9.90;8.93;;;28.00;1.00;;;;;;5794912;23;20157;-67
2021/06/05 07:22:11;;;;;;;9.93;8.50;;;27.90;1.00;;;;;;5826910;23;20404;-65
2021/06/05 07:24:36;;;;;;;9.17;8.40;;;28.80;1.00;;;;;;5854557;23;20394;-66
2021/06/05 07:27:02;;;;;;;8.90;7.73;;;29.40;1.00;;;;;;5829053;23;20702;-66
2021/06/05 07:29:28;;;;;;;7.53;6.93;;;30.50;1.00;;;;;;5880890;23;20621;-66
2021/06/05 07:31:54;;;;;;;9.73;8.40;;;29.30;1.00;;;;;;5869090;23;20971;-67
2021/06/05 07:34:25;;;;;;;8.80;8.00;;;28.60;1.00;;;;;;5822798;23;20559;-67
2021/06/05 07:36:55;;;;;;;8.53;7.70;;;27.80;1.00;;;;;;5827130;23;20471;-66
2021/06/05 07:39:24;;;;;;;8.50;7.70;;;28.10;1.00;;;;;;5844195;23;20839;-67
2021/06/05 07:41:51;;;;;;;8.67;7.87;;;27.40;1.00;;;;;;5844513;23;20403;-67
2021/06/05 07:44:17;;;;;;;8.47;7.67;;;26.80;49.80;;;;;;5821493;23;20804;-66
2021/06/05 07:46:49;;;;;;;8.10;7.30;;;26.40;1.00;;;;;;5857391;23;20768;-66
2021/06/05 07:49:15;;;;;;;8.73;7.87;;;26.50;1.00;;;;;;5824922;23;20943;-67
2021/06/05 07:51:42;;;;;;;8.80;8.00;;;26.20;1.00;;;;;;5879214;23;20812;-67
2021/06/05 07:54:08;;;;;;;8.77;7.83;;;25.90;62.20;;;;;;5843206;23;20946;-66
2021/06/05 07:56:34;;;;;;;8.17;7.30;;;25.80;1.00;;;;;;5860160;23;20887;-66
2021/06/05 07:59:00;;;;;;;7.77;7.10;;;25.80;34.50;;;;;;5807480;23;20800;-66
2021/06/05 08:01:27;;;;;;;8.10;7.30;;;25.80;21.50;;;;;;5888354;23;20830;-66
2021/06/05 08:03:53;;;;;;;7.33;6.73;;;25.80;11.40;;;;;;5842761;23;21015;-67
2021/06/05 08:06:20;;;;;;;7.13;6.53;;;25.70;1.00;;;;;;5869119;23;20384;-66
2021/06/05 08:08:47;;;;;;;7.17;6.53;;;25.40;33.10;;;;;;5870612;23;20799;-67
2021/06/05 08:11:13;;;;;;;7.50;6.90;;;25.40;1.30;;;;;;5835992;23;20505;-69
2021/06/05 08:13:39;;;;;;;8.87;7.50;;;25.10;1.00;;;;;;5777215;23;20831;-68
2021/06/05 08:16:06;;;;;;;7.57;6.97;;;25.10;75.10;;;;;;5790430;23;20384;-66
2021/06/05 08:18:33;;;;;;;6.83;6.30;;;25.20;13.30;;;;;;5764795;23;20949;-66
2021/06/05 08:21:03;;;;;;;7.10;6.50;;;24.90;76.20;;;;;;5790518;23;20855;-67
2021/06/05 08:23:31;;;;;;;7.50;6.90;;;24.90;99.90;;;;;;5867311;23;21270;-67
2021/06/05 08:25:58;;;;;;;7.30;6.60;;;25.20;93.70;;;;;;5848432;23;20387;-67
2021/06/05 08:28:25;;;;;;;7.40;6.80;;;25.20;62.80;;;;;;5814944;23;20523;-67
2021/06/05 08:30:54;;;;;;;9.63;7.40;;;25.10;33.20;;;;;;5817839;23;21333;-68
2021/06/05 08:33:20;;;;;;;6.60;6.10;;;25.30;1.00;;;;;;5869450;23;20380;-67
2021/06/05 08:35:46;;;;;;;6.93;6.23;;;25.50;1.00;;;;;;5863795;23;20388;-68
2021/06/05 08:38:14;;;;;;;6.90;6.40;;;25.30;1.00;;;;;;5868067;23;20376;-68
2021/06/05 08:40:45;;;;;;;11.47;7.90;;;25.40;1.70;;;;;;5818640;23;20460;-66
2021/06/05 08:43:13;;;;;;;6.80;6.30;;;25.40;1.00;;;;;;5835033;23;21320;-68
2021/06/05 08:45:40;;;;;;;7.00;6.50;;;25.50;1.00;;;;;;5873619;23;20478;-65
2021/06/05 08:48:13;;;;;;;7.30;6.70;;;25.90;8.00;;;;;;5831705;23;21227;-67
2021/06/05 08:50:39;;;;;;;7.10;6.50;;;25.90;1.00;;;;;;5820092;23;20419;-67
2021/06/05 08:53:14;;;;;;;7.17;6.57;;;25.90;1.00;;;;;;5829510;23;20767;-67
2021/06/05 08:55:45;;;;;;;7.27;6.70;;;26.00;1.00;;;;;;5844912;23;20529;-69
2021/06/05 08:58:10;;;;;;;8.87;6.57;;;25.60;1.00;;;;;;5843648;23;20494;-65
2021/06/05 09:00:43;;;;;;;6.80;6.10;;;25.70;20.10;;;;;;5881969;23;20838;-68
2021/06/05 09:03:21;;;;;;;8.70;7.90;;;25.80;1.00;;;;;;5870263;23;20141;-68
2021/06/05 09:06:01;;;;;;;8.00;7.30;;;26.00;1.00;;;;;;5808328;23;20807;-65
2021/06/05 09:08:29;;;;;;;7.33;6.73;;;26.10;1.00;;;;;;5873449;23;20771;-68
2021/06/05 09:10:57;;;;;;;6.07;5.57;;;25.40;1.00;;;;;;5819935;23;20511;-67
2021/06/05 09:13:23;;;;;;;7.30;6.73;;;25.50;83.70;;;;;;5828879;23;20399;-67
2021/06/05 09:16:08;;;;;;;6.90;6.30;;;25.70;92.40;;;;;;5816651;23;20396;-66
2021/06/05 09:18:46;;;;;;;6.93;6.33;;;26.10;1.00;;;;;;5822159;23;20153;-66
2021/06/05 09:21:11;;;;;;;6.87;6.30;;;26.20;1.00;;;;;;5831144;23;20834;-66
2021/06/05 09:23:38;;;;;;;7.40;6.80;;;25.90;1.00;;;;;;5839046;23;20428;-66
2021/06/05 09:26:28;;;;;;;7.60;6.23;;;26.00;1.00;;;;;;5875225;23;20157;-67
2021/06/05 09:29:20;;;;;;;8.33;6.10;;;25.80;1.00;;;;;;5842214;23;20379;-66
2021/06/05 09:31:56;;;;;;;7.53;6.83;;;25.80;1.00;;;;;;5875756;23;20856;-66
2021/06/05 09:34:30;;;;;;;6.70;5.97;;;26.00;1.00;;;;;;5831908;23;20403;-66
2021/06/05 09:36:55;;;;;;;6.50;6.00;;;26.00;1.00;;;;;;5866319;23;20810;-68
2021/06/05 09:39:57;;;;;;;7.50;6.90;;;26.10;1.00;;;;;;5863463;23;20804;-68
2021/06/05 09:42:33;;;;;;;6.63;6.13;;;26.30;1.00;;;;;;5880865;23;20137;-66
2021/06/05 09:45:00;;;;;;;6.97;6.33;;;26.60;1.00;;;;;;5884118;23;20407;-66
2021/06/05 09:47:31;;;;;;;8.03;7.30;;;26.90;1.00;;;;;;5873585;23;21001;-67
2021/06/05 09:50:22;;;;;;;6.77;6.17;;;27.10;1.00;;;;;;5837376;23;20812;-68
2021/06/05 09:52:49;;;;;;;6.73;6.13;;;27.10;1.00;;;;;;5827059;23;20811;-67
2021/06/05 09:55:14;;;;;;;7.27;6.57;;;27.00;1.00;;;;;;5870099;23;20946;-67
2021/06/05 09:57:44;;;;;;;6.97;6.27;;;27.10;1.00;;;;;;5820949;23;20466;-68
2021/06/05 10:00:37;;;;;;;8.20;6.60;;;27.10;1.00;;;;;;5824223;23;20648;-69
2021/06/05 10:03:26;;;;;;;7.33;6.73;;;26.80;1.00;;;;;;5813330;23;20822;-65
2021/06/05 10:05:55;;;;;;;6.77;6.17;;;27.20;1.00;;;;;;5762869;23;20767;-67
2021/06/05 10:08:28;;;;;;;6.10;5.57;;;27.50;1.00;;;;;;5806687;23;21076;-68
2021/06/05 10:11:01;;;;;;;7.50;5.63;;;27.30;1.00;;;;;;5781910;23;21175;-68
2021/06/05 10:13:32;;;;;;;7.60;6.40;;;26.70;1.00;;;;;;5856489;23;20798;-68
2021/06/05 10:16:11;;;;;;;6.43;5.93;;;26.70;1.00;;;;;;5813983;23;20785;-68
2021/06/05 10:19:01;;;;;;;7.10;6.40;;;26.90;1.00;;;;;;5813780;23;20740;-66
2021/06/05 10:21:32;;;;;;;6.67;6.17;;;27.30;1.00;;;;;;5882029;23;20810;-66
2021/06/05 10:24:42;;;;;;;6.30;5.80;;;27.90;1.00;;;;;;5850385;23;20811;-65
2021/06/05 10:27:16;;;;;;;6.83;6.23;;;28.10;1.00;;;;;;5799565;23;20703;-68
2021/06/05 10:29:48;;;;;;;6.40;5.80;;;27.90;1.00;;;;;;5797593;23;21343;-67
2021/06/05 10:32:17;;;;;;;6.27;5.77;;;27.60;1.00;;;;;;5873656;23;20416;-66
2021/06/05 10:34:47;;;;;;;6.37;5.87;;;27.40;1.00;;;;;;5856652;23;21267;-66
2021/06/05 10:37:23;;;;;;;5.70;5.20;;;27.50;1.00;;;;;;5841091;23;20852;-67
2021/06/05 10:39:51;;;;;;;6.80;6.10;;;27.80;1.00;;;;;;5802801;23;20981;-66
2021/06/05 10:42:25;;;;;;;6.40;5.90;;;27.60;1.00;;;;;;5861158;23;20773;-66
2021/06/05 10:44:51;;;;;;;6.30;5.80;;;27.60;1.00;;;;;;5807201;23;20426;-67
2021/06/05 10:47:50;;;;;;;5.93;5.43;;;27.80;1.00;;;;;;5801241;23;20400;-68
2021/06/05 10:50:25;;;;;;;6.47;5.90;;;28.10;1.00;;;;;;5820588;23;20430;-65
2021/06/05 10:52:59;;;;;;;5.87;5.40;;;28.40;1.00;;;;;;5856936;23;20780;-66
2021/06/05 10:55:39;;;;;;;6.60;5.90;;;28.60;1.00;;;;;;5822000;23;20828;-66
2021/06/05 10:58:13;;;;;;;6.10;5.60;;;29.00;1.00;;;;;;5803617;23;20410;-67
2021/06/05 11:00:41;;;;;;;6.23;5.73;;;29.10;1.00;;;;;;5858354;23;20542;-69
2021/06/05 11:03:09;;;;;;;6.20;5.70;;;29.20;1.00;;;;;;5854555;23;20878;-67
2021/06/05 11:05:36;;;;;;;7.20;6.50;;;29.20;1.00;;;;;;5832708;23;20851;-69
2021/06/05 11:08:07;;;;;;;9.73;5.80;;;29.00;1.00;;;;;;5817947;23;21400;-69
2021/06/05 11:10:52;;;;;;;7.97;7.00;;;28.80;1.00;;;;;;5827012;23;20427;-69
2021/06/05 11:13:36;;;;;;;5.63;5.23;;;28.80;1.00;;;;;;5812569;23;20816;-68
2021/06/05 11:16:10;;;;;;;6.03;5.53;;;28.80;1.00;;;;;;5810766;23;20954;-68
2021/06/05 11:18:43;;;;;;;6.10;5.33;;;28.80;1.00;;;;;;5863490;23;20790;-70
2021/06/05 11:21:25;;;;;;;6.43;5.60;;;29.10;1.00;;;;;;5819439;23;20434;-70
2021/06/05 11:23:57;;;;;;;6.43;5.93;;;28.80;1.00;;;;;;5825173;23;20415;-69
2021/06/05 11:26:38;;;;;;;5.97;5.47;;;28.50;1.00;;;;;;5866105;23;20823;-68
2021/06/05 11:29:06;;;;;;;6.13;5.63;;;28.50;1.00;;;;;;5802949;23;20878;-68
2021/06/05 11:31:39;;;;;;;6.10;5.60;;;28.60;1.00;;;;;;5822852;23;20431;-66
2021/06/05 11:34:06;;;;;;;6.43;5.70;;;29.00;1.00;;;;;;5875916;23;20950;-66
2021/06/05 11:36:45;;;;;;;5.80;5.40;;;28.70;1.00;;;;;;5831975;23;20410;-66
2021/06/05 11:39:31;;;;;;;6.40;5.80;;;28.60;1.00;;;;;;5834595;23;20729;-65
2021/06/05 11:42:03;;;;;;;8.60;6.53;;;28.50;1.00;;;;;;5838886;23;20395;-69
2021/06/05 11:44:31;;;;;;;5.67;5.10;;;28.60;1.00;;;;;;5874490;23;20415;-69
2021/06/05 11:47:15;;;;;;;6.13;5.63;;;28.70;1.00;;;;;;5851672;23;20831;-69
2021/06/05 11:49:43;;;;;;;5.77;5.33;;;29.40;1.00;;;;;;5809648;23;20761;-67
2021/06/05 11:52:33;;;;;;;6.63;6.07;;;29.10;1.00;;;;;;5843838;23;20439;-68
2021/06/05 11:55:15;;;;;;;5.47;4.97;;;29.10;1.00;;;;;;5840171;23;20392;-69
2021/06/05 11:57:44;;;;;;;6.77;6.27;;;29.20;1.00;;;;;;5831779;23;20880;-68
2021/06/05 12:00:17;;;;;;;6.37;5.87;;;29.30;1.00;;;;;;5833186;23;20835;-67
2021/06/05 12:02:46;;;;;;;5.40;5.00;;;29.20;1.00;;;;;;5830342;23;20383;-69
2021/06/05 12:05:28;;;;;;;5.10;4.63;;;29.30;1.00;;;;;;5805275;23;20406;-69
2021/06/05 12:07:54;;;;;;;5.13;4.73;;;29.40;1.00;;;;;;5808602;23;20398;-70
2021/06/05 12:10:36;;;;;;;5.80;5.30;;;28.80;1.00;;;;;;5813935;23;20889;-69
2021/06/05 12:13:04;;;;;;;5.60;5.20;;;28.80;1.00;;;;;;5837279;23;20424;-68
2021/06/05 12:15:39;;;;;;;5.97;5.57;;;29.00;1.00;;;;;;5868884;23;20764;-66
2021/06/05 12:18:27;;;;;;;6.03;5.53;;;29.30;1.00;;;;;;5875845;23;20784;-67
2021/06/05 12:21:01;;;;;;;5.90;5.40;;;29.00;1.00;;;;;;5835679;23;20856;-68
2021/06/05 12:23:38;;;;;;;5.97;5.47;;;29.10;1.00;;;;;;5808978;23;20926;-66
2021/06/05 12:26:17;;;;;;;6.20;5.80;;;29.00;1.00;;;;;;5837293;23;20399;-67
2021/06/05 12:28:45;;;;;;;5.97;5.40;;;29.10;1.00;;;;;;5811496;23;20428;-66
2021/06/05 12:31:41;;;;;;;9.90;5.07;;;29.50;1.00;;;;;;5872045;23;20971;-65
2021/06/05 12:34:13;;;;;;;5.13;4.63;;;29.40;1.00;;;;;;5824223;23;20392;-66
2021/06/05 12:36:45;;;;;;;6.83;5.50;;;29.70;1.00;;;;;;5842386;23;20392;-66
2021/06/05 12:39:46;;;;;;;6.00;5.50;;;29.70;1.00;;;;;;5794825;23;20838;-67
2021/06/05 12:42:36;;;;;;;5.63;5.23;;;29.60;1.00;;;;;;5815852;23;20722;-70
2021/06/05 12:45:10;;;;;;;5.77;5.27;;;29.90;1.00;;;;;;5826110;23;20432;-70
2021/06/05 12:47:50;;;;;;;5.90;5.47;;;29.50;1.00;;;;;;5824960;23;21206;-67
2021/06/05 12:50:19;;;;;;;5.07;4.63;;;29.60;1.00;;;;;;5863888;23;20392;-68
2021/06/05 12:52:47;;;;;;;5.20;4.80;;;29.90;1.00;;;;;;5874480;23;20821;-69
2021/06/05 12:55:18;;;;;;;5.53;5.13;;;30.30;1.00;;;;;;5843135;23;20755;-69
2021/06/05 12:57:47;;;;;;;6.23;5.63;;;30.10;1.00;;;;;;5882778;23;20365;-69
2021/06/05 13:00:33;;;;;;;5.00;4.60;;;30.10;1.00;;;;;;5856053;23;20807;-67
2021/06/05 13:03:08;;;;;;;5.67;5.27;;;30.30;1.00;;;;;;5841182;23;21306;-66